sensor_id;sensor_type;location;lat;lon;timestamp;temperature;humidity
54938;DHT22;52756;52.826;6.214;2024-02-21T00:02:11;10.10;91.70
54938;DHT22;52756;52.826;6.214;2024-02-21T00:04:36;10.40;91.80
54938;DHT22;52756;52.826;6.214;2024-02-21T00:07:04;10.10;91.70
54938;DHT22;52756;52.826;6.214;2024-02-21T00:09:29;10.10;91.70
54938;DHT22;52756;52.826;6.214;2024-02-21T00:11:55;10.10;91.80
54938;DHT22;52756;52.826;6.214;2024-02-21T00:14:21;10.10;91.80
54938;DHT22;52756;52.826;6.214;2024-02-21T00:16:47;10.40;91.90
54938;DHT22;52756;52.826;6.214;2024-02-21T00:19:13;10.10;91.80
54938;DHT22;52756;52.826;6.214;2024-02-21T00:21:40;10.10;91.80
54938;DHT22;52756;52.826;6.214;2024-02-21T00:24:05;10.00;91.80
54938;DHT22;52756;52.826;6.214;2024-02-21T00:26:31;10.10;91.80
54938;DHT22;52756;52.826;6.214;2024-02-21T00:28:57;10.00;91.80
54938;DHT22;52756;52.826;6.214;2024-02-21T00:31:22;10.10;91.90
54938;DHT22;52756;52.826;6.214;2024-02-21T00:33:48;10.10;91.90
54938;DHT22;52756;52.826;6.214;2024-02-21T00:36:13;10.10;91.90
54938;DHT22;52756;52.826;6.214;2024-02-21T00:38:40;10.50;92.00
54938;DHT22;52756;52.826;6.214;2024-02-21T00:41:06;10.00;91.90
54938;DHT22;52756;52.826;6.214;2024-02-21T00:43:32;10.10;92.00
54938;DHT22;52756;52.826;6.214;2024-02-21T00:45:57;10.10;92.00
54938;DHT22;52756;52.826;6.214;2024-02-21T00:48:23;10.00;92.00
54938;DHT22;52756;52.826;6.214;2024-02-21T00:50:48;10.00;92.10
54938;DHT22;52756;52.826;6.214;2024-02-21T00:53:14;10.80;92.40
54938;DHT22;52756;52.826;6.214;2024-02-21T00:55:40;10.00;92.20
54938;DHT22;52756;52.826;6.214;2024-02-21T00:58:05;10.00;92.20
54938;DHT22;52756;52.826;6.214;2024-02-21T01:00:31;10.00;92.30
54938;DHT22;52756;52.826;6.214;2024-02-21T01:02:57;10.00;92.30
54938;DHT22;52756;52.826;6.214;2024-02-21T01:05:22;10.00;92.30
54938;DHT22;52756;52.826;6.214;2024-02-21T01:07:48;10.00;92.40
54938;DHT22;52756;52.826;6.214;2024-02-21T01:10:14;10.00;92.50
54938;DHT22;52756;52.826;6.214;2024-02-21T01:12:39;10.00;92.50
54938;DHT22;52756;52.826;6.214;2024-02-21T01:15:05;10.00;92.50
54938;DHT22;52756;52.826;6.214;2024-02-21T01:17:31;10.00;92.60
54938;DHT22;52756;52.826;6.214;2024-02-21T01:19:56;10.00;92.60
54938;DHT22;52756;52.826;6.214;2024-02-21T01:22:22;10.00;92.60
54938;DHT22;52756;52.826;6.214;2024-02-21T01:24:47;9.90;92.60
54938;DHT22;52756;52.826;6.214;2024-02-21T01:27:13;10.00;92.70
54938;DHT22;52756;52.826;6.214;2024-02-21T01:29:39;9.90;92.70
54938;DHT22;52756;52.826;6.214;2024-02-21T01:32:04;10.50;92.90
54938;DHT22;52756;52.826;6.214;2024-02-21T01:34:30;9.90;92.70
54938;DHT22;52756;52.826;6.214;2024-02-21T01:36:56;9.90;92.70
54938;DHT22;52756;52.826;6.214;2024-02-21T01:39:21;10.20;92.80
54938;DHT22;52756;52.826;6.214;2024-02-21T01:41:47;9.90;92.80
54938;DHT22;52756;52.826;6.214;2024-02-21T01:44:13;9.90;92.80
54938;DHT22;52756;52.826;6.214;2024-02-21T01:46:39;9.90;92.80
54938;DHT22;52756;52.826;6.214;2024-02-21T01:49:05;10.50;93.00
54938;DHT22;52756;52.826;6.214;2024-02-21T01:51:30;9.90;92.80
54938;DHT22;52756;52.826;6.214;2024-02-21T01:53:57;9.90;92.80
54938;DHT22;52756;52.826;6.214;2024-02-21T01:56:23;9.90;92.90
54938;DHT22;52756;52.826;6.214;2024-02-21T01:58:49;9.90;92.90
54938;DHT22;52756;52.826;6.214;2024-02-21T02:01:16;9.90;92.90
54938;DHT22;52756;52.826;6.214;2024-02-21T02:03:42;9.90;92.90
54938;DHT22;52756;52.826;6.214;2024-02-21T02:06:10;9.90;92.90
54938;DHT22;52756;52.826;6.214;2024-02-21T02:08:35;9.90;93.00
54938;DHT22;52756;52.826;6.214;2024-02-21T02:11:02;9.90;93.00
54938;DHT22;52756;52.826;6.214;2024-02-21T02:13:27;9.90;93.00
54938;DHT22;52756;52.826;6.214;2024-02-21T02:15:53;9.90;93.10
54938;DHT22;52756;52.826;6.214;2024-02-21T02:18:19;9.90;93.10
54938;DHT22;52756;52.826;6.214;2024-02-21T02:20:45;9.90;93.10
54938;DHT22;52756;52.826;6.214;2024-02-21T02:25:39;9.90;93.20
54938;DHT22;52756;52.826;6.214;2024-02-21T02:28:08;9.90;93.20
54938;DHT22;52756;52.826;6.214;2024-02-21T02:30:37;10.60;93.50
54938;DHT22;52756;52.826;6.214;2024-02-21T02:33:03;9.80;93.30
54938;DHT22;52756;52.826;6.214;2024-02-21T02:35:29;9.80;93.30
54938;DHT22;52756;52.826;6.214;2024-02-21T02:37:55;9.80;93.30
54938;DHT22;52756;52.826;6.214;2024-02-21T02:40:20;9.90;93.40
54938;DHT22;52756;52.826;6.214;2024-02-21T02:42:46;9.80;93.40
54938;DHT22;52756;52.826;6.214;2024-02-21T02:45:17;9.90;93.40
54938;DHT22;52756;52.826;6.214;2024-02-21T02:47:44;9.80;93.40
54938;DHT22;52756;52.826;6.214;2024-02-21T02:50:11;9.80;93.50
54938;DHT22;52756;52.826;6.214;2024-02-21T02:52:37;9.80;93.50
54938;DHT22;52756;52.826;6.214;2024-02-21T02:55:03;9.80;93.50
54938;DHT22;52756;52.826;6.214;2024-02-21T02:57:29;9.80;93.60
54938;DHT22;52756;52.826;6.214;2024-02-21T02:59:55;9.80;93.60
54938;DHT22;52756;52.826;6.214;2024-02-21T03:02:20;9.80;93.60
54938;DHT22;52756;52.826;6.214;2024-02-21T03:04:46;10.20;93.80
54938;DHT22;52756;52.826;6.214;2024-02-21T03:07:14;10.60;93.90
54938;DHT22;52756;52.826;6.214;2024-02-21T03:09:39;9.80;93.70
54938;DHT22;52756;52.826;6.214;2024-02-21T03:12:06;9.70;93.70
54938;DHT22;52756;52.826;6.214;2024-02-21T03:14:32;9.80;93.80
54938;DHT22;52756;52.826;6.214;2024-02-21T03:16:58;9.80;93.80
54938;DHT22;52756;52.826;6.214;2024-02-21T03:19:25;10.50;94.00
54938;DHT22;52756;52.826;6.214;2024-02-21T03:21:51;9.70;93.80
54938;DHT22;52756;52.826;6.214;2024-02-21T03:24:17;9.70;93.80
54938;DHT22;52756;52.826;6.214;2024-02-21T03:26:44;10.30;94.00
54938;DHT22;52756;52.826;6.214;2024-02-21T03:29:10;9.70;93.90
54938;DHT22;52756;52.826;6.214;2024-02-21T03:31:37;9.70;93.90
54938;DHT22;52756;52.826;6.214;2024-02-21T03:34:02;10.20;94.00
54938;DHT22;52756;52.826;6.214;2024-02-21T03:36:28;9.80;93.90
54938;DHT22;52756;52.826;6.214;2024-02-21T03:38:57;9.70;93.90
54938;DHT22;52756;52.826;6.214;2024-02-21T03:41:22;10.40;94.10
54938;DHT22;52756;52.826;6.214;2024-02-21T03:43:48;9.70;93.90
54938;DHT22;52756;52.826;6.214;2024-02-21T03:46:14;9.70;93.90
54938;DHT22;52756;52.826;6.214;2024-02-21T03:48:40;9.70;94.00
54938;DHT22;52756;52.826;6.214;2024-02-21T03:51:06;9.70;94.00
54938;DHT22;52756;52.826;6.214;2024-02-21T03:53:32;10.50;94.20
54938;DHT22;52756;52.826;6.214;2024-02-21T03:56:01;9.70;94.00
54938;DHT22;52756;52.826;6.214;2024-02-21T03:58:28;9.80;94.00
54938;DHT22;52756;52.826;6.214;2024-02-21T04:00:54;9.80;94.00
54938;DHT22;52756;52.826;6.214;2024-02-21T04:03:19;9.70;94.00
54938;DHT22;52756;52.826;6.214;2024-02-21T04:05:45;10.30;94.10
54938;DHT22;52756;52.826;6.214;2024-02-21T04:08:14;9.70;94.00
54938;DHT22;52756;52.826;6.214;2024-02-21T04:10:40;9.80;94.00
54938;DHT22;52756;52.826;6.214;2024-02-21T04:13:06;9.70;94.00
54938;DHT22;52756;52.826;6.214;2024-02-21T04:15:32;9.80;94.10
54938;DHT22;52756;52.826;6.214;2024-02-21T04:17:58;10.30;94.20
54938;DHT22;52756;52.826;6.214;2024-02-21T04:20:23;10.10;94.10
54938;DHT22;52756;52.826;6.214;2024-02-21T04:22:49;10.00;94.10
54938;DHT22;52756;52.826;6.214;2024-02-21T04:25:15;9.70;94.00
54938;DHT22;52756;52.826;6.214;2024-02-21T04:27:40;9.70;94.00
54938;DHT22;52756;52.826;6.214;2024-02-21T04:30:07;9.70;94.00
54938;DHT22;52756;52.826;6.214;2024-02-21T04:32:33;9.80;94.00
54938;DHT22;52756;52.826;6.214;2024-02-21T04:34:59;9.70;94.00
54938;DHT22;52756;52.826;6.214;2024-02-21T04:37:24;10.50;94.20
54938;DHT22;52756;52.826;6.214;2024-02-21T04:39:50;9.70;94.00
54938;DHT22;52756;52.826;6.214;2024-02-21T04:42:16;10.30;94.10
54938;DHT22;52756;52.826;6.214;2024-02-21T04:44:42;9.70;94.00
54938;DHT22;52756;52.826;6.214;2024-02-21T04:47:08;9.70;94.00
54938;DHT22;52756;52.826;6.214;2024-02-21T04:49:34;9.70;94.00
54938;DHT22;52756;52.826;6.214;2024-02-21T04:52:00;10.10;94.10
54938;DHT22;52756;52.826;6.214;2024-02-21T04:54:25;10.10;94.10
54938;DHT22;52756;52.826;6.214;2024-02-21T04:56:51;9.70;93.90
54938;DHT22;52756;52.826;6.214;2024-02-21T04:59:17;9.90;94.00
54938;DHT22;52756;52.826;6.214;2024-02-21T05:01:43;9.70;94.00
54938;DHT22;52756;52.826;6.214;2024-02-21T05:04:08;9.70;94.00
54938;DHT22;52756;52.826;6.214;2024-02-21T05:06:38;10.40;94.20
54938;DHT22;52756;52.826;6.214;2024-02-21T05:09:04;9.80;94.00
54938;DHT22;52756;52.826;6.214;2024-02-21T05:11:30;10.40;94.20
54938;DHT22;52756;52.826;6.214;2024-02-21T05:13:56;9.80;94.20
54938;DHT22;52756;52.826;6.214;2024-02-21T05:16:21;9.80;94.00
54938;DHT22;52756;52.826;6.214;2024-02-21T05:18:47;9.70;94.00
54938;DHT22;52756;52.826;6.214;2024-02-21T05:21:13;9.70;94.00
54938;DHT22;52756;52.826;6.214;2024-02-21T05:23:39;9.70;94.00
54938;DHT22;52756;52.826;6.214;2024-02-21T05:26:07;9.80;94.00
54938;DHT22;52756;52.826;6.214;2024-02-21T05:28:32;9.70;94.00
54938;DHT22;52756;52.826;6.214;2024-02-21T05:30:58;9.70;94.00
54938;DHT22;52756;52.826;6.214;2024-02-21T05:33:24;9.80;94.00
54938;DHT22;52756;52.826;6.214;2024-02-21T05:35:50;9.80;94.00
54938;DHT22;52756;52.826;6.214;2024-02-21T05:38:16;9.80;94.00
54938;DHT22;52756;52.826;6.214;2024-02-21T05:40:42;9.80;94.00
54938;DHT22;52756;52.826;6.214;2024-02-21T05:43:08;10.50;94.20
54938;DHT22;52756;52.826;6.214;2024-02-21T05:45:34;9.80;94.00
54938;DHT22;52756;52.826;6.214;2024-02-21T05:48:00;9.80;94.00
54938;DHT22;52756;52.826;6.214;2024-02-21T05:50:26;9.80;94.00
54938;DHT22;52756;52.826;6.214;2024-02-21T05:52:53;9.80;94.00
54938;DHT22;52756;52.826;6.214;2024-02-21T05:55:19;9.80;94.00
54938;DHT22;52756;52.826;6.214;2024-02-21T05:57:44;9.80;94.00
54938;DHT22;52756;52.826;6.214;2024-02-21T06:00:10;9.80;94.00
54938;DHT22;52756;52.826;6.214;2024-02-21T06:02:36;9.80;94.00
54938;DHT22;52756;52.826;6.214;2024-02-21T06:05:02;10.30;94.10
54938;DHT22;52756;52.826;6.214;2024-02-21T06:07:27;9.80;93.90
54938;DHT22;52756;52.826;6.214;2024-02-21T06:09:53;9.80;93.90
54938;DHT22;52756;52.826;6.214;2024-02-21T06:12:19;9.80;93.90
54938;DHT22;52756;52.826;6.214;2024-02-21T06:14:45;9.80;93.90
54938;DHT22;52756;52.826;6.214;2024-02-21T06:17:10;10.10;94.00
54938;DHT22;52756;52.826;6.214;2024-02-21T06:19:40;9.80;93.90
54938;DHT22;52756;52.826;6.214;2024-02-21T06:22:06;9.90;93.90
54938;DHT22;52756;52.826;6.214;2024-02-21T06:24:34;9.80;93.90
54938;DHT22;52756;52.826;6.214;2024-02-21T06:26:59;9.80;93.90
54938;DHT22;52756;52.826;6.214;2024-02-21T06:29:25;9.80;93.80
54938;DHT22;52756;52.826;6.214;2024-02-21T06:31:50;9.80;93.80
54938;DHT22;52756;52.826;6.214;2024-02-21T06:34:16;9.80;93.80
54938;DHT22;52756;52.826;6.214;2024-02-21T06:36:42;9.80;93.80
54938;DHT22;52756;52.826;6.214;2024-02-21T06:39:07;9.80;93.80
54938;DHT22;52756;52.826;6.214;2024-02-21T06:41:33;9.80;93.80
54938;DHT22;52756;52.826;6.214;2024-02-21T06:43:59;9.90;93.80
54938;DHT22;52756;52.826;6.214;2024-02-21T06:46:28;9.80;93.70
54938;DHT22;52756;52.826;6.214;2024-02-21T06:48:55;9.80;93.70
54938;DHT22;52756;52.826;6.214;2024-02-21T06:51:23;9.80;93.70
54938;DHT22;52756;52.826;6.214;2024-02-21T06:53:49;9.80;93.70
54938;DHT22;52756;52.826;6.214;2024-02-21T06:56:15;9.80;93.70
54938;DHT22;52756;52.826;6.214;2024-02-21T06:58:40;9.80;93.70
54938;DHT22;52756;52.826;6.214;2024-02-21T07:01:07;9.80;93.70
54938;DHT22;52756;52.826;6.214;2024-02-21T07:03:32;9.90;93.70
54938;DHT22;52756;52.826;6.214;2024-02-21T07:05:58;10.50;93.80
54938;DHT22;52756;52.826;6.214;2024-02-21T07:08:24;9.80;93.60
54938;DHT22;52756;52.826;6.214;2024-02-21T07:10:49;9.80;93.60
54938;DHT22;52756;52.826;6.214;2024-02-21T07:13:15;10.50;93.80
54938;DHT22;52756;52.826;6.214;2024-02-21T07:15:41;9.80;93.60
54938;DHT22;52756;52.826;6.214;2024-02-21T07:18:07;9.80;93.60
54938;DHT22;52756;52.826;6.214;2024-02-21T07:20:32;10.20;93.70
54938;DHT22;52756;52.826;6.214;2024-02-21T07:23:03;9.80;93.50
54938;DHT22;52756;52.826;6.214;2024-02-21T07:25:29;9.80;93.50
54938;DHT22;52756;52.826;6.214;2024-02-21T07:27:55;9.90;93.50
54938;DHT22;52756;52.826;6.214;2024-02-21T07:30:20;9.80;93.50
54938;DHT22;52756;52.826;6.214;2024-02-21T07:32:49;9.80;93.50
54938;DHT22;52756;52.826;6.214;2024-02-21T07:35:15;9.80;93.50
54938;DHT22;52756;52.826;6.214;2024-02-21T07:37:41;9.80;93.50
54938;DHT22;52756;52.826;6.214;2024-02-21T07:40:12;9.80;93.50
54938;DHT22;52756;52.826;6.214;2024-02-21T07:42:38;9.80;93.50
54938;DHT22;52756;52.826;6.214;2024-02-21T07:45:04;9.80;93.40
54938;DHT22;52756;52.826;6.214;2024-02-21T07:47:29;9.80;93.40
54938;DHT22;52756;52.826;6.214;2024-02-21T07:49:55;9.90;93.40
54938;DHT22;52756;52.826;6.214;2024-02-21T07:52:21;9.80;93.40
54938;DHT22;52756;52.826;6.214;2024-02-21T07:54:46;9.80;93.40
54938;DHT22;52756;52.826;6.214;2024-02-21T07:57:12;9.80;93.40
54938;DHT22;52756;52.826;6.214;2024-02-21T07:59:37;9.80;93.40
54938;DHT22;52756;52.826;6.214;2024-02-21T08:02:03;9.80;93.40
54938;DHT22;52756;52.826;6.214;2024-02-21T08:04:32;9.80;93.30
54938;DHT22;52756;52.826;6.214;2024-02-21T08:06:57;9.80;93.30
54938;DHT22;52756;52.826;6.214;2024-02-21T08:09:26;9.80;93.50
54938;DHT22;52756;52.826;6.214;2024-02-21T08:11:53;9.80;93.30
54938;DHT22;52756;52.826;6.214;2024-02-21T08:14:19;9.80;93.30
54938;DHT22;52756;52.826;6.214;2024-02-21T08:16:45;9.80;93.30
54938;DHT22;52756;52.826;6.214;2024-02-21T08:19:11;10.60;93.60
54938;DHT22;52756;52.826;6.214;2024-02-21T08:21:36;9.80;93.40
54938;DHT22;52756;52.826;6.214;2024-02-21T08:24:02;9.90;93.40
54938;DHT22;52756;52.826;6.214;2024-02-21T08:26:28;9.90;93.40
54938;DHT22;52756;52.826;6.214;2024-02-21T08:28:59;9.80;93.30
54938;DHT22;52756;52.826;6.214;2024-02-21T08:31:28;9.80;93.30
54938;DHT22;52756;52.826;6.214;2024-02-21T08:34:00;9.80;93.30
54938;DHT22;52756;52.826;6.214;2024-02-21T08:36:33;10.30;93.40
54938;DHT22;52756;52.826;6.214;2024-02-21T08:39:00;9.90;93.30
54938;DHT22;52756;52.826;6.214;2024-02-21T08:41:26;9.90;93.30
54938;DHT22;52756;52.826;6.214;2024-02-21T08:43:52;9.80;93.20
54938;DHT22;52756;52.826;6.214;2024-02-21T08:46:20;9.90;93.20
54938;DHT22;52756;52.826;6.214;2024-02-21T08:48:46;9.90;93.20
54938;DHT22;52756;52.826;6.214;2024-02-21T08:51:13;9.90;93.20
54938;DHT22;52756;52.826;6.214;2024-02-21T08:53:39;9.90;93.20
54938;DHT22;52756;52.826;6.214;2024-02-21T08:56:05;9.90;93.10
54938;DHT22;52756;52.826;6.214;2024-02-21T08:58:31;9.90;93.10
54938;DHT22;52756;52.826;6.214;2024-02-21T09:00:56;9.90;93.10
54938;DHT22;52756;52.826;6.214;2024-02-21T09:03:22;10.50;93.30
54938;DHT22;52756;52.826;6.214;2024-02-21T09:05:48;9.90;93.10
54938;DHT22;52756;52.826;6.214;2024-02-21T09:08:14;9.90;93.10
54938;DHT22;52756;52.826;6.214;2024-02-21T09:10:40;10.00;93.00
54938;DHT22;52756;52.826;6.214;2024-02-21T09:13:06;9.90;92.90
54938;DHT22;52756;52.826;6.214;2024-02-21T09:15:33;9.90;92.90
54938;DHT22;52756;52.826;6.214;2024-02-21T09:17:59;9.90;92.90
54938;DHT22;52756;52.826;6.214;2024-02-21T09:20:24;9.90;92.90
54938;DHT22;52756;52.826;6.214;2024-02-21T09:22:50;10.00;92.90
54938;DHT22;52756;52.826;6.214;2024-02-21T09:25:15;10.50;93.00
54938;DHT22;52756;52.826;6.214;2024-02-21T09:27:43;9.90;92.80
54938;DHT22;52756;52.826;6.214;2024-02-21T09:30:09;10.00;92.80
54938;DHT22;52756;52.826;6.214;2024-02-21T09:32:35;10.00;92.80
54938;DHT22;52756;52.826;6.214;2024-02-21T09:35:04;10.10;92.80
54938;DHT22;52756;52.826;6.214;2024-02-21T09:37:31;10.00;92.70
54938;DHT22;52756;52.826;6.214;2024-02-21T09:39:57;10.00;92.70
54938;DHT22;52756;52.826;6.214;2024-02-21T09:42:39;10.00;92.70
54938;DHT22;52756;52.826;6.214;2024-02-21T09:45:08;10.80;92.90
54938;DHT22;52756;52.826;6.214;2024-02-21T09:47:50;10.00;92.70
54938;DHT22;52756;52.826;6.214;2024-02-21T09:50:19;10.00;92.70
54938;DHT22;52756;52.826;6.214;2024-02-21T09:52:48;10.10;92.70
54938;DHT22;52756;52.826;6.214;2024-02-21T09:55:14;10.10;92.60
54938;DHT22;52756;52.826;6.214;2024-02-21T09:57:40;10.10;92.60
54938;DHT22;52756;52.826;6.214;2024-02-21T10:00:06;10.90;92.80
54938;DHT22;52756;52.826;6.214;2024-02-21T10:02:34;10.10;92.60
54938;DHT22;52756;52.826;6.214;2024-02-21T10:04:59;10.20;92.60
54938;DHT22;52756;52.826;6.214;2024-02-21T10:07:25;10.20;92.60
54938;DHT22;52756;52.826;6.214;2024-02-21T10:10:03;10.20;92.50
54938;DHT22;52756;52.826;6.214;2024-02-21T10:12:29;10.20;92.40
54938;DHT22;52756;52.826;6.214;2024-02-21T10:15:05;10.90;92.60
54938;DHT22;52756;52.826;6.214;2024-02-21T10:17:34;10.30;92.30
54938;DHT22;52756;52.826;6.214;2024-02-21T10:20:11;10.30;92.30
54938;DHT22;52756;52.826;6.214;2024-02-21T10:22:38;10.30;92.20
54938;DHT22;52756;52.826;6.214;2024-02-21T10:25:14;10.40;92.20
54938;DHT22;52756;52.826;6.214;2024-02-21T10:27:40;10.40;92.20
54938;DHT22;52756;52.826;6.214;2024-02-21T10:30:12;10.40;92.40
54938;DHT22;52756;52.826;6.214;2024-02-21T10:32:51;10.40;92.10
54938;DHT22;52756;52.826;6.214;2024-02-21T10:35:32;10.50;92.20
54938;DHT22;52756;52.826;6.214;2024-02-21T10:37:58;10.50;92.10
54938;DHT22;52756;52.826;6.214;2024-02-21T10:40:25;10.50;92.10
54938;DHT22;52756;52.826;6.214;2024-02-21T10:42:57;10.60;92.10
54938;DHT22;52756;52.826;6.214;2024-02-21T10:45:34;10.60;91.90
54938;DHT22;52756;52.826;6.214;2024-02-21T10:48:14;10.70;91.90
54938;DHT22;52756;52.826;6.214;2024-02-21T10:53:42;10.70;91.70
54938;DHT22;52756;52.826;6.214;2024-02-21T10:58:53;10.70;91.60
54938;DHT22;52756;52.826;6.214;2024-02-21T11:01:20;11.10;91.60
54938;DHT22;52756;52.826;6.214;2024-02-21T11:03:51;10.80;91.40
54938;DHT22;52756;52.826;6.214;2024-02-21T11:06:19;10.80;91.30
54938;DHT22;52756;52.826;6.214;2024-02-21T11:08:45;10.80;91.20
54938;DHT22;52756;52.826;6.214;2024-02-21T11:11:14;10.80;91.20
54938;DHT22;52756;52.826;6.214;2024-02-21T11:13:46;10.80;91.10
54938;DHT22;52756;52.826;6.214;2024-02-21T11:16:21;10.90;91.10
54938;DHT22;52756;52.826;6.214;2024-02-21T11:18:47;10.80;91.00
54938;DHT22;52756;52.826;6.214;2024-02-21T11:21:13;10.80;90.90
54938;DHT22;52756;52.826;6.214;2024-02-21T11:23:38;11.20;91.00
54938;DHT22;52756;52.826;6.214;2024-02-21T11:26:08;10.80;90.90
54938;DHT22;52756;52.826;6.214;2024-02-21T11:28:34;10.80;90.80
54938;DHT22;52756;52.826;6.214;2024-02-21T11:31:13;10.90;90.80
54938;DHT22;52756;52.826;6.214;2024-02-21T11:33:40;10.90;90.70
54938;DHT22;52756;52.826;6.214;2024-02-21T11:36:10;10.90;90.60
54938;DHT22;52756;52.826;6.214;2024-02-21T11:38:37;10.90;90.50
54938;DHT22;52756;52.826;6.214;2024-02-21T11:41:07;11.60;90.70
54938;DHT22;52756;52.826;6.214;2024-02-21T11:43:33;10.90;90.40
54938;DHT22;52756;52.826;6.214;2024-02-21T11:46:02;10.90;90.30
54938;DHT22;52756;52.826;6.214;2024-02-21T11:48:29;10.90;90.30
54938;DHT22;52756;52.826;6.214;2024-02-21T11:50:56;11.30;90.40
54938;DHT22;52756;52.826;6.214;2024-02-21T11:53:22;10.90;90.20
54938;DHT22;52756;52.826;6.214;2024-02-21T11:55:48;10.90;90.10
54938;DHT22;52756;52.826;6.214;2024-02-21T11:58:15;10.90;90.00
54938;DHT22;52756;52.826;6.214;2024-02-21T12:00:41;10.90;90.10
54938;DHT22;52756;52.826;6.214;2024-02-21T12:03:09;11.00;90.10
54938;DHT22;52756;52.826;6.214;2024-02-21T12:05:35;10.90;90.00
54938;DHT22;52756;52.826;6.214;2024-02-21T12:08:01;10.90;90.10
54938;DHT22;52756;52.826;6.214;2024-02-21T12:10:26;11.60;90.20
54938;DHT22;52756;52.826;6.214;2024-02-21T12:13:11;11.00;89.70
54938;DHT22;52756;52.826;6.214;2024-02-21T12:15:38;11.10;88.90
54938;DHT22;52756;52.826;6.214;2024-02-21T12:18:04;10.90;89.00
54938;DHT22;52756;52.826;6.214;2024-02-21T12:20:36;11.50;89.60
54938;DHT22;52756;52.826;6.214;2024-02-21T12:23:02;11.00;89.40
54938;DHT22;52756;52.826;6.214;2024-02-21T12:25:29;10.90;89.00
54938;DHT22;52756;52.826;6.214;2024-02-21T12:27:55;11.40;89.10
54938;DHT22;52756;52.826;6.214;2024-02-21T12:30:21;11.60;89.00
54938;DHT22;52756;52.826;6.214;2024-02-21T12:32:47;11.40;88.80
54938;DHT22;52756;52.826;6.214;2024-02-21T12:35:14;10.80;88.30
54938;DHT22;52756;52.826;6.214;2024-02-21T12:37:39;10.80;88.10
54938;DHT22;52756;52.826;6.214;2024-02-21T12:40:06;10.80;87.90
54938;DHT22;52756;52.826;6.214;2024-02-21T12:42:35;10.80;87.90
54938;DHT22;52756;52.826;6.214;2024-02-21T12:45:02;10.80;88.10
54938;DHT22;52756;52.826;6.214;2024-02-21T12:47:29;10.70;88.20
54938;DHT22;52756;52.826;6.214;2024-02-21T12:49:54;10.70;88.10
54938;DHT22;52756;52.826;6.214;2024-02-21T12:52:20;10.60;88.10
54938;DHT22;52756;52.826;6.214;2024-02-21T12:54:45;11.40;88.80
54938;DHT22;52756;52.826;6.214;2024-02-21T12:57:11;10.70;88.50
54938;DHT22;52756;52.826;6.214;2024-02-21T12:59:37;10.60;88.40
54938;DHT22;52756;52.826;6.214;2024-02-21T13:02:02;11.10;88.90
54938;DHT22;52756;52.826;6.214;2024-02-21T13:04:28;10.60;88.90
54938;DHT22;52756;52.826;6.214;2024-02-21T13:06:53;10.60;88.80
54938;DHT22;52756;52.826;6.214;2024-02-21T13:09:23;11.10;88.90
54938;DHT22;52756;52.826;6.214;2024-02-21T13:11:48;10.60;88.50
54938;DHT22;52756;52.826;6.214;2024-02-21T13:14:16;10.60;88.30
54938;DHT22;52756;52.826;6.214;2024-02-21T13:16:42;10.80;88.20
54938;DHT22;52756;52.826;6.214;2024-02-21T13:19:08;10.50;87.80
54938;DHT22;52756;52.826;6.214;2024-02-21T13:21:37;10.50;87.80
54938;DHT22;52756;52.826;6.214;2024-02-21T13:24:02;10.50;87.90
54938;DHT22;52756;52.826;6.214;2024-02-21T13:26:28;10.50;87.70
54938;DHT22;52756;52.826;6.214;2024-02-21T13:28:54;10.50;87.50
54938;DHT22;52756;52.826;6.214;2024-02-21T13:31:20;10.50;87.50
54938;DHT22;52756;52.826;6.214;2024-02-21T13:33:46;10.50;87.40
54938;DHT22;52756;52.826;6.214;2024-02-21T13:36:14;10.50;87.50
54938;DHT22;52756;52.826;6.214;2024-02-21T13:38:40;10.50;87.50
54938;DHT22;52756;52.826;6.214;2024-02-21T13:41:06;10.50;87.50
54938;DHT22;52756;52.826;6.214;2024-02-21T13:43:32;10.50;87.40
54938;DHT22;52756;52.826;6.214;2024-02-21T13:46:02;11.20;87.80
54938;DHT22;52756;52.826;6.214;2024-02-21T13:48:30;10.50;87.20
54938;DHT22;52756;52.826;6.214;2024-02-21T13:50:56;10.50;87.50
54938;DHT22;52756;52.826;6.214;2024-02-21T13:53:22;10.50;87.50
54938;DHT22;52756;52.826;6.214;2024-02-21T13:55:49;10.50;88.10
54938;DHT22;52756;52.826;6.214;2024-02-21T13:58:15;10.50;87.80
54938;DHT22;52756;52.826;6.214;2024-02-21T14:00:41;11.20;88.30
54938;DHT22;52756;52.826;6.214;2024-02-21T14:03:06;10.50;87.90
54938;DHT22;52756;52.826;6.214;2024-02-21T14:05:32;10.50;87.90
54938;DHT22;52756;52.826;6.214;2024-02-21T14:07:57;10.50;87.80
54938;DHT22;52756;52.826;6.214;2024-02-21T14:10:23;11.10;88.00
54938;DHT22;52756;52.826;6.214;2024-02-21T14:12:49;10.70;87.70
54938;DHT22;52756;52.826;6.214;2024-02-21T14:15:15;10.50;87.60
54938;DHT22;52756;52.826;6.214;2024-02-21T14:17:42;10.50;87.70
54938;DHT22;52756;52.826;6.214;2024-02-21T14:20:08;10.60;87.80
54938;DHT22;52756;52.826;6.214;2024-02-21T14:22:34;10.40;87.70
54938;DHT22;52756;52.826;6.214;2024-02-21T14:25:00;10.40;88.30
54938;DHT22;52756;52.826;6.214;2024-02-21T14:27:26;10.40;87.80
54938;DHT22;52756;52.826;6.214;2024-02-21T14:29:51;10.40;87.80
54938;DHT22;52756;52.826;6.214;2024-02-21T14:32:18;10.40;87.90
54938;DHT22;52756;52.826;6.214;2024-02-21T14:34:45;11.00;88.30
54938;DHT22;52756;52.826;6.214;2024-02-21T14:37:11;10.40;88.00
54938;DHT22;52756;52.826;6.214;2024-02-21T14:39:36;10.40;88.00
54938;DHT22;52756;52.826;6.214;2024-02-21T14:42:02;10.40;88.00
54938;DHT22;52756;52.826;6.214;2024-02-21T14:44:28;10.40;88.00
54938;DHT22;52756;52.826;6.214;2024-02-21T14:46:53;10.30;88.10
54938;DHT22;52756;52.826;6.214;2024-02-21T14:49:19;10.30;88.00
54938;DHT22;52756;52.826;6.214;2024-02-21T14:51:45;10.30;87.90
54938;DHT22;52756;52.826;6.214;2024-02-21T14:54:11;10.30;87.90
54938;DHT22;52756;52.826;6.214;2024-02-21T14:56:36;10.20;87.90
54938;DHT22;52756;52.826;6.214;2024-02-21T14:59:02;10.20;88.00
54938;DHT22;52756;52.826;6.214;2024-02-21T15:01:29;10.20;88.10
54938;DHT22;52756;52.826;6.214;2024-02-21T15:03:55;10.60;88.60
54938;DHT22;52756;52.826;6.214;2024-02-21T15:06:20;10.40;88.60
54938;DHT22;52756;52.826;6.214;2024-02-21T15:08:47;10.40;88.60
54938;DHT22;52756;52.826;6.214;2024-02-21T15:11:14;10.30;88.50
54938;DHT22;52756;52.826;6.214;2024-02-21T15:13:40;10.50;88.80
54938;DHT22;52756;52.826;6.214;2024-02-21T15:16:05;10.00;88.60
54938;DHT22;52756;52.826;6.214;2024-02-21T15:18:31;10.10;88.70
54938;DHT22;52756;52.826;6.214;2024-02-21T15:21:03;10.10;88.80
54938;DHT22;52756;52.826;6.214;2024-02-21T15:23:28;10.00;88.70
54938;DHT22;52756;52.826;6.214;2024-02-21T15:25:54;10.00;88.60
54938;DHT22;52756;52.826;6.214;2024-02-21T15:28:20;10.00;88.60
54938;DHT22;52756;52.826;6.214;2024-02-21T15:30:45;10.40;89.00
54938;DHT22;52756;52.826;6.214;2024-02-21T15:33:11;10.00;88.80
54938;DHT22;52756;52.826;6.214;2024-02-21T15:35:37;10.00;89.00
54938;DHT22;52756;52.826;6.214;2024-02-21T15:38:02;10.00;89.30
54938;DHT22;52756;52.826;6.214;2024-02-21T15:40:28;9.90;89.50
54938;DHT22;52756;52.826;6.214;2024-02-21T15:42:54;10.00;89.80